Stations météo

réclame
Mon MeteoGroup
Blahammaren A, Suède (2210): Température de l'air & dewpoint: 08.08.2018 08:00:00 - 14.08.2018 08:00:00 (CEST)Blahammaren A, Suède (2210): Vitesse du vent & gusts: 08.08.2018 08:00:00 - 14.08.2018 08:00:00 (CEST)Blahammaren A, Suède (2210): Direction du vent: 08.08.2018 08:00:00 - 14.08.2018 08:00:00 (CEST)
Date & Time tt [°C] td [°C] ff [km/h] ff [knt] fx [km/h] fx [knt] dd
14.08.2018 08:00:00 5,2 4,0 17 9 20 11 S
14.08.2018 07:00:00 4,6 3,7 9 5 32 18 S
14.08.2018 06:00:00 3,5 3,4 16 8 19 10 S
14.08.2018 05:00:00 2,7 2,6 7 4 9 5 SSW
14.08.2018 04:00:00 3,2 2,9 6 3 14 8 SW
14.08.2018 03:00:00 3,7 2,5 10 5 13 7 W
14.08.2018 02:00:00 3,4 1,8 9 5 15 8 WSW
14.08.2018 01:00:00 3,3 2,3 10 6 13 7 WNW
14.08.2018 00:00:00 3,6 2,9 10 5 14 7 NW
13.08.2018 23:00:00 4,1 4,0 8 4 13 7 NW
13.08.2018 22:00:00 4,0 4,0 11 6 22 12 NNW
13.08.2018 21:00:00 4,6 4,5 19 10 26 14 NW
13.08.2018 20:00:00 5,1 5,0 21 12 33 18 NW
13.08.2018 19:00:00 5,8 3,8 24 13 40 21 NW
13.08.2018 18:00:00 6,3 4,8 26 14 37 20 NW
13.08.2018 17:00:00 5,4 5,3 24 13 39 21 NW
13.08.2018 16:00:00 6,4 6,3 24 13 33 18 NW
13.08.2018 15:00:00 5,5 5,4 26 14 39 21 NW
13.08.2018 14:00:00 5,4 5,4 28 15 39 21 NW
13.08.2018 13:00:00 5,2 5,2 27 15 46 25 NW
13.08.2018 12:00:00 4,6 4,6 26 14 45 24 NW
13.08.2018 11:00:00 4,3 4,3 33 18 47 25 NW
13.08.2018 10:00:00 4,4 4,4 34 19 51 28 NNW
13.08.2018 09:00:00 4,5 4,5 39 21 55 30 NW
13.08.2018 08:00:00 4,4 4,4 40 21 49 26 NW
13.08.2018 07:00:00 4,2 4,2 30 16 55 30 WNW
13.08.2018 06:00:00 4,1 4,1 34 18 49 27 WNW
13.08.2018 05:00:00 3,9 3,9 32 17 53 28 WNW
13.08.2018 04:00:00 3,9 3,9 29 16 49 26 WNW
13.08.2018 03:00:00 4,0 4,0 36 19 52 28 WNW
13.08.2018 02:00:00 3,9 3,9 36 20 51 27 WNW
13.08.2018 01:00:00 3,9 3,9 34 18 49 27 NW
13.08.2018 00:00:00 3,8 3,8 36 20 54 29 WNW
12.08.2018 23:00:00 4,0 4,0 34 18 51 28 WNW
12.08.2018 22:00:00 3,9 3,8 34 18 48 26 WNW
12.08.2018 21:00:00 4,1 4,0 34 18 50 27 WNW
12.08.2018 20:00:00 4,4 3,8 34 19 51 28 WNW
12.08.2018 19:00:00 5,1 3,8 34 18 54 29 WNW
12.08.2018 18:00:00 5,7 3,7 35 19 51 27 WNW
12.08.2018 17:00:00 5,7 4,7 33 18 44 24 NW
12.08.2018 16:00:00 4,6 4,2 34 19 52 28 NW
12.08.2018 15:00:00 6,3 4,6 26 14 42 23 NW
12.08.2018 14:00:00 4,6 4,3 29 16 43 23 NW
12.08.2018 13:00:00 4,6 4,2 29 16 46 25 NW
12.08.2018 12:00:00 4,8 4,7 26 14 36 19 NW
12.08.2018 11:00:00 4,2 4,1 26 14 39 21 NW
12.08.2018 10:00:00 3,8 3,8 30 16 39 21 NW
12.08.2018 09:00:00 3,6 3,6 26 14 40 22 NW
12.08.2018 08:00:00 3,5 3,5 22 12 35 19 NW
12.08.2018 07:00:00 3,2 3,2 20 11 29 16 WNW
12.08.2018 06:00:00 3,3 3,3 20 11 32 17 NW
12.08.2018 05:00:00 3,1 3,0 18 10 31 17 WNW
12.08.2018 04:00:00 3,2 3,1 19 10 29 16 WNW
12.08.2018 03:00:00 3,2 3,1 19 10 29 16 WNW
12.08.2018 02:00:00 3,4 3,3 19 10 26 14 WNW
12.08.2018 01:00:00 3,6 3,5 16 9 27 14 WNW
12.08.2018 00:00:00 3,7 3,4 17 9 24 13 NW
11.08.2018 23:00:00 3,8 2,9 20 11 27 15 WNW
11.08.2018 22:00:00 3,9 3,2 22 12 28 15 WNW
11.08.2018 21:00:00 4,8 2,8 20 11 33 18 NW
11.08.2018 20:00:00 6,0 4,0 23 12 36 20 NW
11.08.2018 19:00:00 5,9 4,4 26 14 39 21 NW
11.08.2018 18:00:00 7,6 4,7 26 14 35 19 NW
11.08.2018 17:00:00 7,2 4,2 26 14 45 25 WNW
11.08.2018 16:00:00 7,1 4,1 26 14 60 33 WNW
11.08.2018 15:00:00 5,6 3,6 33 18 55 30 WNW
11.08.2018 14:00:00 6,0 4,0 24 13 50 27 WNW
11.08.2018 13:00:00 5,5 4,5 23 12 49 26 W
11.08.2018 12:00:00 5,7 3,5 24 13 54 29 W
11.08.2018 11:00:00 4,9 4,0 27 15 55 30 W
11.08.2018 10:00:00 5,3 4,0 28 15 56 31 W
11.08.2018 09:00:00 4,8 4,4 31 17 70 38 W
11.08.2018 08:00:00 4,8 4,5 29 16 73 39 W
11.08.2018 07:00:00 4,1 4,1 31 17 85 46 W
11.08.2018 06:00:00 4,4 4,4 35 19 71 38 W
11.08.2018 05:00:00 5,1 5,1 34 18 120 65 WNW
11.08.2018 04:00:00 5,2 5,2 34 18 92 50 WNW
11.08.2018 03:00:00 6,6 6,6 59 32 86 47 WNW
11.08.2018 02:00:00 7,6 7,6 27 15 59 32 WNW
11.08.2018 01:00:00 6,5 6,4 38 20 53 29 S
11.08.2018 00:00:00 7,1 6,4 42 23 57 31 S
10.08.2018 23:00:00 8,1 6,6 46 25 53 29 S
10.08.2018 22:00:00 9,1 6,5 42 23 68 37 S
10.08.2018 21:00:00 10,4 7,5 33 18 76 41 S
10.08.2018 20:00:00 11,1 7,8 67 36 85 46 S
10.08.2018 19:00:00 11,9 8,9 64 35 84 45 S
10.08.2018 18:00:00 12,6 11,8 41 22 68 37 SE
10.08.2018 17:00:00 13,1 12,9 48 26 66 35 SE
10.08.2018 16:00:00 11,4 11,4 41 22 59 32 SE
10.08.2018 15:00:00 10,7 10,5 42 23 61 33 SE
10.08.2018 14:00:00 10,5 10,3 48 26 64 35 SSE
10.08.2018 13:00:00 10,5 9,9 36 20 47 25 SE
10.08.2018 12:00:00 9,5 9,0 26 14 44 24 SE
10.08.2018 11:00:00 9,3 8,2 21 11 37 20 ESE
10.08.2018 10:00:00 8,9 8,6 31 17 41 22 ESE
10.08.2018 09:00:00 9,5 8,7 23 13 31 17 ESE
10.08.2018 08:00:00 9,5 8,6 16 8 24 13 ESE
10.08.2018 07:00:00 9,1 8,5 22 12 39 21 SE
10.08.2018 06:00:00 9,2 8,1 22 12 29 16 ESE
10.08.2018 05:00:00 8,8 7,9 4 2 20 11 SE
10.08.2018 04:00:00 9,0 8,4 14 8 16 9 SE
10.08.2018 03:00:00 9,4 8,5 8 4 15 8 S
10.08.2018 02:00:00 9,6 8,5 5 3 10 5 SSE
10.08.2018 01:00:00 10,2 8,8 4 2 12 7 SSE
10.08.2018 00:00:00 10,2 8,8 11 6 16 9 SSE
09.08.2018 23:00:00 9,7 8,9 11 6 16 9 SE
09.08.2018 22:00:00 10,2 9,0 10 5 19 10 SSE
09.08.2018 21:00:00 10,0 9,2 16 9 21 11 SE
09.08.2018 20:00:00 9,7 9,1 10 5 15 8 SE
09.08.2018 19:00:00 9,7 9,2 16 8 20 11 SE
09.08.2018 18:00:00 10,4 9,9 9 5 14 7 ESE
09.08.2018 17:00:00 9,3 9,2 8 4 16 9 NE
09.08.2018 16:00:00 8,7 8,7 12 6 19 10 NE
09.08.2018 15:00:00 8,0 8,0 11 6 19 10 NNE
09.08.2018 14:00:00 7,6 7,6 13 7 25 14 N
09.08.2018 13:00:00 7,8 7,8 18 10 23 13 N
09.08.2018 12:00:00 7,6 7,6 17 9 23 12 N
09.08.2018 11:00:00 7,6 7,6 16 9 23 12 N
09.08.2018 10:00:00 7,1 7,1 18 10 24 13 N
09.08.2018 09:00:00 7,2 7,2 16 9 29 16 NNW
09.08.2018 08:00:00 7,7 7,7 22 12 34 18 NW
09.08.2018 07:00:00 8,4 8,3 7 4 23 12 WSW
09.08.2018 06:00:00 8,7 8,6 16 9 46 25 NW
09.08.2018 05:00:00 8,1 8,0 22 12 48 26 NW
09.08.2018 04:00:00 11,6 11,4 20 11 66 36 SW
09.08.2018 03:00:00 12,9 12,0 50 27 71 38 SSW
09.08.2018 02:00:00 13,2 11,1 41 22 56 31 S
09.08.2018 01:00:00 13,2 11,3 33 18 54 29 S
09.08.2018 00:00:00 13,5 11,4 37 20 54 29 S
08.08.2018 23:00:00 13,4 11,3 36 19 56 30 S
08.08.2018 22:00:00 13,5 11,0 35 19 50 27 S
08.08.2018 21:00:00 13,4 11,1 42 23 60 33 S
08.08.2018 20:00:00 13,7 11,2 44 24 62 33 S
08.08.2018 19:00:00 14,2 11,2 53 29 69 38 S
08.08.2018 18:00:00 13,4 11,1 51 28 74 40 S
08.08.2018 17:00:00 13,6 11,1 60 32 79 43 S
08.08.2018 16:00:00 13,6 11,5 45 24 65 35 SSE
08.08.2018 15:00:00 12,8 11,5 46 25 81 44 S
08.08.2018 14:00:00 15,9 9,3 69 37 89 48 S
08.08.2018 13:00:00 17,2 10,8 64 35 78 42 SSE
08.08.2018 12:00:00 16,7 10,1 51 28 69 38 SSE
08.08.2018 11:00:00 16,8 9,0 35 19 61 33 SSE
08.08.2018 10:00:00 14,7 7,5 44 24 58 31 S
08.08.2018 09:00:00 14,4 9,0 37 20 57 31 S
08.08.2018 08:00:00 14,4 8,8 32 18 49 27 SSE

tt = Température de l'air
td = dewpoint
ff = Vitesse du vent
fx = gusts
dd = Direction du vent

stations d'obs. à proximité